Time;durP1;ratioP1;P1;durP2;ratioP2;P2;SDS_P1;SDS_P2;PMS_P1;PMS_P2;Temp;Humidity;BMP_temperature;BMP_pressure;BME280_temperature;BME280_humidity;BME280_pressure;Samples;Min_cycle;Max_cycle;Signal;HPM_P1;HPM_P2
2021/06/29 00:00:08;;;;;;;7.57;6.88;;;;;;;;;;5113541;28;20351;-82
2021/06/29 00:02:34;;;;;;;8.43;7.65;;;;;;;;;;5112159;28;20087;-82
2021/06/29 00:05:00;;;;;;;9.10;8.40;;;;;;;;;;5113488;28;20063;-81
2021/06/29 00:07:26;;;;;;;9.77;7.90;;;;;;;;;;5113322;28;20054;-81
2021/06/29 00:09:53;;;;;;;9.65;8.65;;;;;;;;;;5113464;28;20095;-81
2021/06/29 00:12:19;;;;;;;8.90;7.97;;;;;;;;;;5112035;28;20378;-82
2021/06/29 00:14:46;;;;;;;8.38;7.65;;;;;;;;;;5113229;28;20024;-82
2021/06/29 00:17:12;;;;;;;8.82;8.02;;;;;;;;;;5114681;28;20019;-81
2021/06/29 00:19:38;;;;;;;9.45;8.52;;;;;;;;;;5116966;27;20020;-82
2021/06/29 00:22:05;;;;;;;9.32;8.43;;;;;;;;;;5116860;28;20063;-81
2021/06/29 00:24:31;;;;;;;9.60;8.70;;;;;;;;;;5116873;28;20536;-82
2021/06/29 00:26:57;;;;;;;9.38;8.40;;;;;;;;;;5116868;28;20023;-81
2021/06/29 00:29:23;;;;;;;9.55;8.55;;;;;;;;;;5116754;27;20366;-81
2021/06/29 00:31:50;;;;;;;9.85;8.85;;;;;;;;;;5116706;28;20031;-81
2021/06/29 00:34:16;;;;;;;9.35;8.38;;;;;;;;;;5116691;28;20039;-81
2021/06/29 00:36:42;;;;;;;8.85;8.05;;;;;;;;;;5116487;28;20470;-81
2021/06/29 00:39:08;;;;;;;8.85;7.97;;;;;;;;;;5116430;28;20047;-82
2021/06/29 00:41:34;;;;;;;9.52;8.63;;;;;;;;;;5116579;28;20024;-81
2021/06/29 00:44:00;;;;;;;8.98;8.18;;;;;;;;;;5116514;28;20020;-82
2021/06/29 00:46:26;;;;;;;9.40;8.40;;;;;;;;;;5116511;27;20113;-82
2021/06/29 00:48:52;;;;;;;9.35;8.55;;;;;;;;;;5116408;28;20475;-82
2021/06/29 00:51:20;;;;;;;9.30;8.40;;;;;;;;;;5116328;28;20027;-82
2021/06/29 00:53:47;;;;;;;9.50;8.60;;;;;;;;;;5116387;28;20051;-81
2021/06/29 00:56:14;;;;;;;9.23;8.40;;;;;;;;;;5116299;28;20098;-82
2021/06/29 00:58:43;;;;;;;9.23;8.43;;;;;;;;;;5114982;28;20471;-82
2021/06/29 01:01:09;;;;;;;10.13;9.13;;;;;;;;;;5116104;28;20440;-81
2021/06/29 01:03:36;;;;;;;9.70;8.80;;;;;;;;;;5116034;28;20016;-81
2021/06/29 01:06:03;;;;;;;9.23;8.40;;;;;;;;;;5116197;28;20474;-81
2021/06/29 01:08:29;;;;;;;10.75;9.63;;;;;;;;;;5116029;28;20643;-82
2021/06/29 01:10:55;;;;;;;9.63;8.73;;;;;;;;;;5116011;27;20030;-82
2021/06/29 01:13:40;;;;;;;10.23;9.07;;;;;;;;;;5115941;27;20036;-81
2021/06/29 01:16:06;;;;;;;12.45;9.05;;;;;;;;;;5115845;28;20051;-82
2021/06/29 01:18:33;;;;;;;9.70;8.80;;;;;;;;;;5115861;28;20019;-81
2021/06/29 01:20:59;;;;;;;10.70;8.25;;;;;;;;;;5115720;28;20026;-81
2021/06/29 01:23:28;;;;;;;10.73;8.77;;;;;;;;;;5115616;28;20103;-81
2021/06/29 01:26:09;;;;;;;10.40;9.25;;;;;;;;;;5115783;28;20042;-81
2021/06/29 01:28:47;;;;;;;9.90;8.93;;;;;;;;;;5114901;28;20020;-81
2021/06/29 01:31:15;;;;;;;9.65;8.75;;;;;;;;;;5115588;28;20043;-81
2021/06/29 01:33:42;;;;;;;9.75;8.85;;;;;;;;;;5115352;28;20030;-81
2021/06/29 01:36:09;;;;;;;9.90;8.98;;;;;;;;;;5114046;28;20028;-82
2021/06/29 01:38:35;;;;;;;9.13;8.35;;;;;;;;;;5115366;28;20120;-82
2021/06/29 01:41:01;;;;;;;9.00;8.30;;;;;;;;;;5115217;27;20023;-82
2021/06/29 01:43:31;;;;;;;9.90;8.95;;;;;;;;;;5113988;28;20032;-81
2021/06/29 01:45:57;;;;;;;9.10;8.38;;;;;;;;;;5115261;28;20031;-82
2021/06/29 01:48:25;;;;;;;10.68;9.70;;;;;;;;;;5115266;28;20015;-82
2021/06/29 01:50:54;;;;;;;9.75;8.85;;;;;;;;;;5115212;28;20084;-81
2021/06/29 01:53:20;;;;;;;10.50;9.55;;;;;;;;;;5115137;28;20051;-82
2021/06/29 01:55:47;;;;;;;9.68;8.68;;;;;;;;;;5115095;28;20024;-82
2021/06/29 01:58:18;;;;;;;9.93;9.02;;;;;;;;;;5115067;28;20061;-81
2021/06/29 02:00:45;;;;;;;9.65;8.73;;;;;;;;;;5114847;28;20021;-81
2021/06/29 02:03:11;;;;;;;9.57;8.70;;;;;;;;;;5114967;28;20471;-81
2021/06/29 02:05:37;;;;;;;9.93;9.02;;;;;;;;;;5114913;27;20019;-81
2021/06/29 02:08:03;;;;;;;10.52;9.52;;;;;;;;;;5114766;28;20020;-81
2021/06/29 02:10:29;;;;;;;10.63;9.73;;;;;;;;;;5114855;28;20023;-82
2021/06/29 02:12:57;;;;;;;10.65;9.63;;;;;;;;;;5114904;28;20090;-81
2021/06/29 02:15:23;;;;;;;9.75;8.85;;;;;;;;;;5114779;28;20099;-81
2021/06/29 02:17:49;;;;;;;11.05;9.43;;;;;;;;;;5113305;28;20440;-81
2021/06/29 02:20:17;;;;;;;10.65;9.75;;;;;;;;;;5114587;28;20020;-81
2021/06/29 02:22:44;;;;;;;9.93;9.07;;;;;;;;;;5114514;28;20016;-81
2021/06/29 02:25:11;;;;;;;10.15;9.15;;;;;;;;;;5114577;28;20148;-82
2021/06/29 02:27:37;;;;;;;10.07;9.05;;;;;;;;;;5114528;28;20402;-81
2021/06/29 02:30:04;;;;;;;9.35;8.40;;;;;;;;;;5114512;28;20031;-81
2021/06/29 02:32:30;;;;;;;10.48;9.43;;;;;;;;;;5114612;28;20027;-82
2021/06/29 02:34:56;;;;;;;9.38;8.48;;;;;;;;;;5114442;28;20032;-82
2021/06/29 02:37:22;;;;;;;10.30;9.30;;;;;;;;;;5114344;28;20027;-81
2021/06/29 02:39:48;;;;;;;11.07;10.07;;;;;;;;;;5114117;28;20557;-81
2021/06/29 02:42:14;;;;;;;10.15;9.30;;;;;;;;;;5114235;28;20059;-82
2021/06/29 02:44:42;;;;;;;11.35;9.88;;;;;;;;;;5112840;28;20409;-82
2021/06/29 02:47:09;;;;;;;11.25;9.75;;;;;;;;;;5114183;28;20066;-82
2021/06/29 02:49:35;;;;;;;11.18;10.10;;;;;;;;;;5114136;28;20049;-81
2021/06/29 02:52:01;;;;;;;10.02;8.80;;;;;;;;;;5114131;28;20023;-82
2021/06/29 02:54:27;;;;;;;10.50;9.43;;;;;;;;;;5114143;28;20023;-81
2021/06/29 02:56:53;;;;;;;10.50;9.60;;;;;;;;;;5114187;28;20072;-81
2021/06/29 02:59:19;;;;;;;13.38;10.90;;;;;;;;;;5114072;28;20486;-83
2021/06/29 03:01:46;;;;;;;10.73;9.65;;;;;;;;;;5114023;28;20020;-81
2021/06/29 03:04:12;;;;;;;10.25;9.40;;;;;;;;;;5113967;28;20462;-83
2021/06/29 03:06:38;;;;;;;11.90;9.88;;;;;;;;;;5112709;28;20034;-83
2021/06/29 03:09:05;;;;;;;11.43;10.27;;;;;;;;;;5113944;28;20080;-83
2021/06/29 03:11:32;;;;;;;11.85;10.73;;;;;;;;;;5113897;28;20521;-83
2021/06/29 03:13:58;;;;;;;14.45;10.25;;;;;;;;;;5114014;28;20031;-81
2021/06/29 03:16:24;;;;;;;11.20;10.13;;;;;;;;;;5113763;28;20030;-81
2021/06/29 03:18:50;;;;;;;11.55;10.52;;;;;;;;;;5113825;28;20023;-81
2021/06/29 03:21:17;;;;;;;11.20;10.18;;;;;;;;;;5113741;28;20388;-81
2021/06/29 03:23:43;;;;;;;10.63;9.73;;;;;;;;;;5114044;28;20065;-82
2021/06/29 03:26:10;;;;;;;11.32;10.20;;;;;;;;;;5113805;28;20020;-81
2021/06/29 03:28:36;;;;;;;10.65;9.65;;;;;;;;;;5113776;28;20020;-81
2021/06/29 03:31:02;;;;;;;13.15;11.48;;;;;;;;;;5112493;28;20024;-81
2021/06/29 03:33:28;;;;;;;11.40;10.18;;;;;;;;;;5113758;28;20073;-81
2021/06/29 03:35:54;;;;;;;11.43;10.25;;;;;;;;;;5113601;28;20466;-82
2021/06/29 03:38:21;;;;;;;13.13;10.30;;;;;;;;;;5113673;28;20110;-81
2021/06/29 03:40:47;;;;;;;13.00;10.45;;;;;;;;;;5113384;28;20552;-82
2021/06/29 03:43:13;;;;;;;14.77;10.60;;;;;;;;;;5112308;28;20030;-81
2021/06/29 03:45:39;;;;;;;16.75;10.20;;;;;;;;;;5113643;28;20028;-81
2021/06/29 03:48:05;;;;;;;10.68;9.57;;;;;;;;;;5113487;28;20024;-82
2021/06/29 03:50:31;;;;;;;12.05;10.05;;;;;;;;;;5113497;28;20374;-82
2021/06/29 03:52:57;;;;;;;10.25;9.20;;;;;;;;;;5116137;28;20027;-83
2021/06/29 03:55:24;;;;;;;11.55;10.43;;;;;;;;;;5117643;28;20031;-83
2021/06/29 03:57:50;;;;;;;9.95;9.05;;;;;;;;;;5117478;28;20023;-81
2021/06/29 04:00:16;;;;;;;10.10;9.10;;;;;;;;;;5117378;28;20059;-85
2021/06/29 04:02:43;;;;;;;10.70;9.48;;;;;;;;;;5117242;28;20024;-83
2021/06/29 04:05:09;;;;;;;11.00;9.70;;;;;;;;;;5115863;28;20028;-84
2021/06/29 04:07:35;;;;;;;11.05;9.88;;;;;;;;;;5117307;28;20038;-84
2021/06/29 04:10:03;;;;;;;10.68;9.68;;;;;;;;;;5115784;28;20080;-84
2021/06/29 04:12:29;;;;;;;11.43;10.25;;;;;;;;;;5117112;28;20436;-81
2021/06/29 04:14:55;;;;;;;10.60;9.50;;;;;;;;;;5117074;28;20076;-83
2021/06/29 04:17:21;;;;;;;10.77;9.77;;;;;;;;;;5115727;28;20024;-84
2021/06/29 04:19:47;;;;;;;9.80;8.80;;;;;;;;;;5116986;28;20020;-80
2021/06/29 04:22:14;;;;;;;10.75;9.85;;;;;;;;;;5115561;28;20436;-80
2021/06/29 04:24:40;;;;;;;16.42;9.68;;;;;;;;;;5116921;28;20059;-87
2021/06/29 04:27:06;;;;;;;10.80;9.20;;;;;;;;;;5115432;28;20028;-79
2021/06/29 04:29:32;;;;;;;9.45;8.63;;;;;;;;;;5116838;28;20030;-85
2021/06/29 04:31:58;;;;;;;10.82;9.82;;;;;;;;;;5116691;28;20024;-81
2021/06/29 04:34:25;;;;;;;10.00;9.10;;;;;;;;;;5116728;27;20483;-83
2021/06/29 04:36:51;;;;;;;10.30;9.20;;;;;;;;;;5116695;28;20505;-80
2021/06/29 04:39:17;;;;;;;10.60;9.05;;;;;;;;;;5116557;28;20054;-85
2021/06/29 04:41:43;;;;;;;10.13;9.30;;;;;;;;;;5116267;28;20055;-80
2021/06/29 04:44:09;;;;;;;11.43;10.32;;;;;;;;;;5115264;28;20122;-77
2021/06/29 04:46:35;;;;;;;10.98;8.82;;;;;;;;;;5115674;28;20027;-80
2021/06/29 04:49:01;;;;;;;10.65;9.43;;;;;;;;;;5115792;28;20027;-79
2021/06/29 04:51:27;;;;;;;12.43;11.23;;;;;;;;;;5116177;28;20031;-83
2021/06/29 04:53:54;;;;;;;10.75;9.43;;;;;;;;;;5116184;28;20069;-82
2021/06/29 04:56:20;;;;;;;15.90;14.25;;;;;;;;;;5116038;28;20510;-83
2021/06/29 04:58:52;;;;;;;12.10;10.02;;;;;;;;;;5116130;28;20516;-81
2021/06/29 05:01:18;;;;;;;18.08;16.35;;;;;;;;;;5116013;28;20034;-81
2021/06/29 05:03:44;;;;;;;11.45;9.23;;;;;;;;;;5110458;28;20049;-77
2021/06/29 05:06:11;;;;;;;11.63;9.38;;;;;;;;;;5111967;28;20062;-81
2021/06/29 05:08:37;;;;;;;10.50;9.40;;;;;;;;;;5115921;28;20024;-81
2021/06/29 05:11:03;;;;;;;15.63;9.55;;;;;;;;;;5115733;28;20027;-80
2021/06/29 05:13:29;;;;;;;11.93;10.10;;;;;;;;;;5115206;28;20524;-78
2021/06/29 05:15:55;;;;;;;9.63;8.73;;;;;;;;;;5098624;28;20020;-79
2021/06/29 05:18:21;;;;;;;9.80;8.90;;;;;;;;;;5107629;28;20028;-79
2021/06/29 05:20:47;;;;;;;10.82;9.60;;;;;;;;;;5094733;28;20383;-82
2021/06/29 05:23:13;;;;;;;9.52;8.45;;;;;;;;;;5094977;28;20024;-79
2021/06/29 05:25:39;;;;;;;9.55;8.65;;;;;;;;;;5111635;28;20031;-82
2021/06/29 05:28:06;;;;;;;10.88;9.48;;;;;;;;;;5115106;28;20059;-78
2021/06/29 05:30:32;;;;;;;8.93;7.90;;;;;;;;;;5115298;28;20020;-83
2021/06/29 05:33:43;;;;;;;9.55;8.65;;;;;;;;;;5114967;28;20023;-86
2021/06/29 05:35:45;;;;;;;9.50;8.70;;;;;;;;;;5110532;28;20397;-84
2021/06/29 05:38:11;;;;;;;12.95;10.30;;;;;;;;;;5112721;28;20019;-84
2021/06/29 05:40:37;;;;;;;20.88;10.60;;;;;;;;;;5098323;28;20576;-79
2021/06/29 05:43:04;;;;;;;31.63;12.23;;;;;;;;;;5113860;28;20024;-86
2021/06/29 05:45:30;;;;;;;11.05;9.95;;;;;;;;;;5114066;28;20028;-85
2021/06/29 05:47:57;;;;;;;9.82;8.82;;;;;;;;;;5113710;28;20062;-84
2021/06/29 05:50:29;;;;;;;9.05;8.32;;;;;;;;;;5114131;28;20024;-85
2021/06/29 05:53:29;;;;;;;10.55;9.60;;;;;;;;;;5108843;28;20543;-84
2021/06/29 05:55:55;;;;;;;10.32;9.32;;;;;;;;;;5073825;28;20123;-85
2021/06/29 05:58:29;;;;;;;10.45;9.35;;;;;;;;;;5091196;28;20020;-86
2021/06/29 06:00:55;;;;;;;;;;;;;;;;;;5090908;28;20031;-83
2021/06/29 06:03:29;;;;;;;10.15;9.18;;;;;;;;;;5104242;28;19954;-85
2021/06/29 06:06:00;;;;;;;16.13;10.35;;;;;;;;;;5103948;28;20019;-86
2021/06/29 06:08:26;;;;;;;10.63;9.63;;;;;;;;;;5101484;28;20431;-83
2021/06/29 06:11:03;;;;;;;9.57;8.68;;;;;;;;;;5111030;28;20047;-84
2021/06/29 06:13:36;;;;;;;9.63;8.60;;;;;;;;;;5112394;28;20022;-84
2021/06/29 06:16:08;;;;;;;;;;;;;;;;;;5110881;28;20020;-84
2021/06/29 06:18:38;;;;;;;9.90;8.57;;;;;;;;;;5112900;28;19956;-84
2021/06/29 06:21:04;;;;;;;14.07;8.38;;;;;;;;;;5110839;28;20547;-84
2021/06/29 06:23:33;;;;;;;12.35;7.60;;;;;;;;;;5110680;28;20026;-84
2021/06/29 06:26:01;;;;;;;12.90;8.45;;;;;;;;;;5112300;28;20091;-86
2021/06/29 06:28:27;;;;;;;10.85;8.07;;;;;;;;;;5112028;28;20094;-83
2021/06/29 06:30:54;;;;;;;15.65;8.90;;;;;;;;;;5094490;28;20046;-84
2021/06/29 06:33:21;;;;;;;12.13;8.50;;;;;;;;;;5110648;28;20027;-85
2021/06/29 06:35:47;;;;;;;10.13;8.48;;;;;;;;;;5110904;28;20032;-85
2021/06/29 06:38:13;;;;;;;9.73;8.80;;;;;;;;;;5112294;28;20042;-83
2021/06/29 06:40:39;;;;;;;12.45;8.32;;;;;;;;;;5110682;28;20142;-85
2021/06/29 06:43:05;;;;;;;9.32;8.43;;;;;;;;;;5112232;28;20091;-86
2021/06/29 06:45:34;;;;;;;25.27;9.65;;;;;;;;;;5109828;28;20389;-85
2021/06/29 06:48:00;;;;;;;11.93;8.05;;;;;;;;;;5111898;28;20072;-85
2021/06/29 06:50:26;;;;;;;28.58;9.80;;;;;;;;;;5111634;28;20057;-86
2021/06/29 06:52:52;;;;;;;8.65;7.38;;;;;;;;;;5111958;28;20031;-80
2021/06/29 06:55:19;;;;;;;10.35;7.72;;;;;;;;;;5111692;28;20429;-84
2021/06/29 06:57:46;;;;;;;9.20;8.13;;;;;;;;;;5111823;28;20427;-84
2021/06/29 07:00:12;;;;;;;8.68;7.40;;;;;;;;;;5111467;28;20080;-85
2021/06/29 07:02:40;;;;;;;12.60;9.13;;;;;;;;;;5111994;28;20136;-83
2021/06/29 07:05:06;;;;;;;13.50;8.57;;;;;;;;;;5111772;28;20012;-77
2021/06/29 07:07:32;;;;;;;9.88;8.55;;;;;;;;;;5103942;28;20107;-83
2021/06/29 07:09:58;;;;;;;15.68;8.20;;;;;;;;;;5108188;28;20020;-81
2021/06/29 07:12:25;;;;;;;12.02;8.20;;;;;;;;;;5110739;28;20024;-86
2021/06/29 07:14:51;;;;;;;11.07;8.05;;;;;;;;;;5111464;28;20562;-84
2021/06/29 07:17:17;;;;;;;18.83;7.93;;;;;;;;;;5110013;28;20104;-85
2021/06/29 07:19:45;;;;;;;9.35;6.80;;;;;;;;;;5111432;28;20023;-85
2021/06/29 07:22:11;;;;;;;13.23;7.53;;;;;;;;;;5110319;28;20432;-83
2021/06/29 07:24:38;;;;;;;11.05;7.35;;;;;;;;;;5111122;28;20027;-83
2021/06/29 07:27:05;;;;;;;11.77;7.28;;;;;;;;;;5112755;28;20412;-86
2021/06/29 07:29:31;;;;;;;18.15;8.70;;;;;;;;;;5107550;28;20027;-85
2021/06/29 07:31:57;;;;;;;9.75;7.20;;;;;;;;;;5114430;28;20027;-87
2021/06/29 07:34:23;;;;;;;10.60;7.28;;;;;;;;;;5112644;28;20024;-83
2021/06/29 07:36:49;;;;;;;8.98;6.90;;;;;;;;;;5106931;28;20489;-85
2021/06/29 07:39:15;;;;;;;9.68;7.00;;;;;;;;;;5097689;28;20044;-87
2021/06/29 07:41:41;;;;;;;10.48;7.20;;;;;;;;;;5096859;28;20032;-85
2021/06/29 07:44:09;;;;;;;9.07;7.22;;;;;;;;;;5103086;28;20020;-87
2021/06/29 07:46:35;;;;;;;11.82;7.38;;;;;;;;;;5111210;28;20028;-85
2021/06/29 07:49:01;;;;;;;8.52;6.93;;;;;;;;;;5105230;28;20554;-84
2021/06/29 07:51:54;;;;;;;9.70;7.47;;;;;;;;;;5112995;28;20027;-86
2021/06/29 07:54:22;;;;;;;17.25;7.47;;;;;;;;;;5093490;28;20039;-85
2021/06/29 07:56:50;;;;;;;9.80;7.60;;;;;;;;;;5094260;28;20085;-86
2021/06/29 07:59:19;;;;;;;11.88;7.20;;;;;;;;;;5094811;28;20046;-88
2021/06/29 08:01:45;;;;;;;9.05;7.13;;;;;;;;;;5094866;28;20028;-86
2021/06/29 08:04:11;;;;;;;19.17;8.07;;;;;;;;;;5111259;28;20054;-82
2021/06/29 08:06:37;;;;;;;11.55;7.13;;;;;;;;;;5114570;28;20027;-83
2021/06/29 08:09:04;;;;;;;11.57;6.72;;;;;;;;;;5098123;28;20495;-82
2021/06/29 08:11:30;;;;;;;13.98;7.38;;;;;;;;;;5094459;28;20031;-81
2021/06/29 08:13:56;;;;;;;10.35;6.93;;;;;;;;;;5095907;28;20040;-81
2021/06/29 08:16:22;;;;;;;10.63;7.15;;;;;;;;;;5112215;28;20486;-85
2021/06/29 08:18:48;;;;;;;16.95;7.43;;;;;;;;;;5113970;28;20038;-86
2021/06/29 08:21:14;;;;;;;10.13;6.63;;;;;;;;;;5114687;28;20057;-85
2021/06/29 08:23:40;;;;;;;10.40;6.72;;;;;;;;;;5114447;28;20463;-86
2021/06/29 08:26:07;;;;;;;12.55;6.80;;;;;;;;;;5114431;28;20027;-85
2021/06/29 08:28:34;;;;;;;10.18;6.70;;;;;;;;;;5114300;27;20015;-87
2021/06/29 08:31:00;;;;;;;13.13;7.10;;;;;;;;;;5114350;28;20157;-83
2021/06/29 08:33:26;;;;;;;8.35;6.32;;;;;;;;;;5114643;28;20106;-83
2021/06/29 08:35:53;;;;;;;9.85;6.18;;;;;;;;;;5113219;28;20751;-84
2021/06/29 08:38:19;;;;;;;34.40;9.00;;;;;;;;;;5109292;28;20024;-82
2021/06/29 08:40:46;;;;;;;14.02;7.13;;;;;;;;;;5100748;28;20050;-82
2021/06/29 08:43:12;;;;;;;10.00;6.60;;;;;;;;;;5106367;28;20519;-83
2021/06/29 08:45:39;;;;;;;9.25;7.20;;;;;;;;;;5096626;28;20119;-84
2021/06/29 08:48:06;;;;;;;12.13;7.00;;;;;;;;;;5108871;28;20085;-78
2021/06/29 08:50:32;;;;;;;13.45;6.75;;;;;;;;;;5112819;28;20451;-84
2021/06/29 08:52:59;;;;;;;12.27;7.18;;;;;;;;;;5100546;28;20062;-82
2021/06/29 08:55:32;;;;;;;9.30;6.57;;;;;;;;;;5102685;28;20103;-84
2021/06/29 08:57:58;;;;;;;13.27;7.00;;;;;;;;;;5093271;28;20035;-85
2021/06/29 09:00:25;;;;;;;10.75;6.72;;;;;;;;;;5094113;28;20459;-85
2021/06/29 09:02:51;;;;;;;10.15;6.55;;;;;;;;;;5093422;28;20095;-87
2021/06/29 09:05:24;;;;;;;9.05;6.55;;;;;;;;;;5099428;28;20127;-84
2021/06/29 09:08:00;;;;;;;10.68;7.15;;;;;;;;;;5094429;28;20031;-85
2021/06/29 09:10:27;;;;;;;9.63;6.47;;;;;;;;;;5093503;28;20502;-86
2021/06/29 09:12:55;;;;;;;8.98;6.30;;;;;;;;;;5091629;28;20038;-84
2021/06/29 09:15:21;;;;;;;11.52;6.57;;;;;;;;;;5091796;28;20035;-84
2021/06/29 09:17:47;;;;;;;13.60;6.50;;;;;;;;;;5104810;28;20031;-83
2021/06/29 09:20:13;;;;;;;12.80;7.45;;;;;;;;;;5111501;28;20036;-84
2021/06/29 09:22:39;;;;;;;13.32;6.60;;;;;;;;;;5103431;28;20080;-83
2021/06/29 09:25:23;;;;;;;13.13;6.72;;;;;;;;;;5092983;28;20024;-84
2021/06/29 09:27:50;;;;;;;9.05;7.03;;;;;;;;;;5092741;28;20174;-87
2021/06/29 09:30:36;;;;;;;11.43;8.55;;;;;;;;;;5091643;28;20085;-86
2021/06/29 09:33:08;;;;;;;12.05;6.93;;;;;;;;;;5108382;28;20113;-83
2021/06/29 09:35:35;;;;;;;9.05;6.35;;;;;;;;;;5098350;28;20369;-81
2021/06/29 09:38:02;;;;;;;9.95;6.72;;;;;;;;;;5100101;28;20490;-86
2021/06/29 09:40:30;;;;;;;8.25;5.90;;;;;;;;;;5100160;28;20477;-84
2021/06/29 09:43:28;;;;;;;6.25;5.13;;;;;;;;;;5110944;28;20039;-85
2021/06/29 09:46:00;;;;;;;8.60;5.60;;;;;;;;;;5098685;28;20027;-85
2021/06/29 09:48:46;;;;;;;11.57;5.80;;;;;;;;;;5112978;28;20023;-88
2021/06/29 09:51:20;;;;;;;14.90;6.80;;;;;;;;;;5111149;28;20027;-87
2021/06/29 09:53:47;;;;;;;15.18;6.43;;;;;;;;;;5111198;28;20031;-82
2021/06/29 09:56:15;;;;;;;12.38;7.63;;;;;;;;;;5104981;28;20517;-80
2021/06/29 09:58:42;;;;;;;17.15;13.00;;;;;;;;;;5113030;28;20524;-81
2021/06/29 10:01:08;;;;;;;10.70;6.55;;;;;;;;;;5112281;28;20382;-83
2021/06/29 10:03:38;;;;;;;8.50;5.38;;;;;;;;;;5105934;28;20411;-85
2021/06/29 10:06:21;;;;;;;6.85;5.57;;;;;;;;;;5092081;28;20099;-82
2021/06/29 10:08:55;;;;;;;11.80;7.53;;;;;;;;;;5098303;28;20028;-85
2021/06/29 10:11:21;;;;;;;8.55;6.15;;;;;;;;;;5107096;28;20083;-81
2021/06/29 10:13:49;;;;;;;9.93;6.65;;;;;;;;;;5109074;28;20273;-82
2021/06/29 10:16:17;;;;;;;8.80;7.03;;;;;;;;;;5111018;28;20107;-80
2021/06/29 10:18:48;;;;;;;11.82;5.70;;;;;;;;;;5111254;28;20085;-84
2021/06/29 10:21:22;;;;;;;8.23;5.72;;;;;;;;;;5091611;28;20096;-82
2021/06/29 10:24:07;;;;;;;8.02;5.20;;;;;;;;;;5091495;28;20516;-81
2021/06/29 10:26:34;;;;;;;9.65;7.90;;;;;;;;;;5101417;28;20027;-82
2021/06/29 10:29:01;;;;;;;9.20;5.78;;;;;;;;;;5093684;28;20111;-81
2021/06/29 10:31:29;;;;;;;13.00;6.07;;;;;;;;;;5092103;28;20045;-85
2021/06/29 10:33:56;;;;;;;10.48;6.35;;;;;;;;;;5111569;28;20035;-83
2021/06/29 10:36:23;;;;;;;7.45;6.30;;;;;;;;;;5098574;28;20036;-84
2021/06/29 10:38:50;;;;;;;10.80;5.35;;;;;;;;;;5100840;28;20024;-84
2021/06/29 10:41:17;;;;;;;7.57;5.82;;;;;;;;;;5102048;28;20020;-84
2021/06/29 10:43:44;;;;;;;9.82;5.65;;;;;;;;;;5112396;28;20469;-82
2021/06/29 10:46:14;;;;;;;7.53;4.75;;;;;;;;;;5108056;28;20032;-83
2021/06/29 10:48:42;;;;;;;7.85;5.88;;;;;;;;;;5091743;28;20058;-83
2021/06/29 10:51:11;;;;;;;10.05;5.22;;;;;;;;;;5091484;28;20082;-82
2021/06/29 10:53:47;;;;;;;8.15;5.15;;;;;;;;;;5103739;28;20031;-83
2021/06/29 10:56:17;;;;;;;8.68;4.97;;;;;;;;;;5104407;28;20088;-82
2021/06/29 10:58:47;;;;;;;13.20;5.75;;;;;;;;;;5100647;28;20084;-85
2021/06/29 11:01:27;;;;;;;8.20;5.38;;;;;;;;;;5103585;28;20032;-84
2021/06/29 11:03:54;;;;;;;7.82;6.00;;;;;;;;;;5110922;28;20076;-82
2021/06/29 11:06:34;;;;;;;9.90;4.90;;;;;;;;;;5101109;28;20031;-83
2021/06/29 11:09:00;;;;;;;9.73;4.38;;;;;;;;;;5104653;28;20123;-83
2021/06/29 11:11:28;;;;;;;9.32;4.53;;;;;;;;;;5096370;28;20039;-82
2021/06/29 11:13:54;;;;;;;7.85;5.10;;;;;;;;;;5104397;28;20110;-84
2021/06/29 11:16:40;;;;;;;18.00;9.80;;;;;;;;;;5090679;28;20059;-85
2021/06/29 11:19:06;;;;;;;12.40;9.55;;;;;;;;;;5091202;28;20020;-84
2021/06/29 11:21:35;;;;;;;8.05;5.40;;;;;;;;;;5104126;28;20077;-82
2021/06/29 11:24:01;;;;;;;9.15;8.07;;;;;;;;;;5111720;28;20508;-84
2021/06/29 11:26:27;;;;;;;6.95;5.90;;;;;;;;;;5103149;28;20024;-83
2021/06/29 11:29:15;;;;;;;17.10;5.63;;;;;;;;;;5107308;28;20452;-83
2021/06/29 11:31:42;;;;;;;7.72;4.40;;;;;;;;;;5098354;28;20479;-82
2021/06/29 11:34:15;;;;;;;6.88;5.82;;;;;;;;;;5101121;28;20049;-85
2021/06/29 11:36:41;;;;;;;6.90;4.37;;;;;;;;;;5109774;28;20080;-83
2021/06/29 11:39:13;;;;;;;6.05;4.03;;;;;;;;;;5114380;28;20044;-84
2021/06/29 11:41:40;;;;;;;4.43;4.03;;;;;;;;;;5111993;28;20122;-81
2021/06/29 11:44:07;;;;;;;16.40;5.90;;;;;;;;;;5112205;28;20145;-83
2021/06/29 11:46:45;;;;;;;6.93;5.10;;;;;;;;;;5112405;28;20043;-82
2021/06/29 11:49:13;;;;;;;8.75;4.85;;;;;;;;;;5112472;28;20080;-81
2021/06/29 11:51:59;;;;;;;17.80;9.45;;;;;;;;;;5112757;28;20386;-84
2021/06/29 11:54:33;;;;;;;9.40;4.65;;;;;;;;;;5110164;28;20102;-83
2021/06/29 11:57:00;;;;;;;7.40;4.53;;;;;;;;;;5112324;28;20123;-82
2021/06/29 11:59:30;;;;;;;13.07;4.45;;;;;;;;;;5112095;28;20478;-84
2021/06/29 12:02:00;;;;;;;9.15;4.53;;;;;;;;;;5112506;28;20518;-81
2021/06/29 12:04:26;;;;;;;8.07;4.47;;;;;;;;;;5107737;28;20103;-82
2021/06/29 12:07:05;;;;;;;10.85;4.78;;;;;;;;;;5109829;28;20020;-83
2021/06/29 12:09:35;;;;;;;9.77;6.03;;;;;;;;;;5107819;28;20532;-83
2021/06/29 12:12:18;;;;;;;6.90;3.97;;;;;;;;;;5111399;28;20463;-81
2021/06/29 12:14:44;;;;;;;9.60;5.43;;;;;;;;;;5115306;28;20027;-83
2021/06/29 12:17:11;;;;;;;6.88;4.97;;;;;;;;;;5108569;28;20406;-83
2021/06/29 12:19:37;;;;;;;7.93;4.78;;;;;;;;;;5115385;28;20028;-82
2021/06/29 12:22:04;;;;;;;16.02;5.43;;;;;;;;;;5102955;28;20444;-83
2021/06/29 12:24:30;;;;;;;7.15;4.95;;;;;;;;;;5095177;28;20020;-84
2021/06/29 12:26:56;;;;;;;10.68;4.97;;;;;;;;;;5108431;28;20028;-82
2021/06/29 12:29:29;;;;;;;8.80;5.10;;;;;;;;;;5115835;28;20557;-82
2021/06/29 12:31:56;;;;;;;10.95;4.35;;;;;;;;;;5115805;28;20020;-83
2021/06/29 12:34:22;;;;;;;9.50;4.85;;;;;;;;;;5111089;27;20027;-82
2021/06/29 12:36:48;;;;;;;6.85;4.85;;;;;;;;;;5107499;28;20032;-83
2021/06/29 12:39:14;;;;;;;9.13;4.40;;;;;;;;;;5108929;28;20058;-82
2021/06/29 12:41:42;;;;;;;9.38;5.05;;;;;;;;;;5109490;28;20032;-82
2021/06/29 12:44:10;;;;;;;10.38;4.75;;;;;;;;;;5108674;28;20012;-83
2021/06/29 12:46:40;;;;;;;11.55;7.30;;;;;;;;;;5102034;28;20109;-82
2021/06/29 12:49:06;;;;;;;8.95;4.75;;;;;;;;;;5098054;28;20024;-83
2021/06/29 12:51:35;;;;;;;9.02;4.82;;;;;;;;;;5110036;28;20058;-85
2021/06/29 12:54:02;;;;;;;13.65;5.07;;;;;;;;;;5110117;28;20490;-83
2021/06/29 12:56:33;;;;;;;12.07;4.68;;;;;;;;;;5106514;28;20034;-83
2021/06/29 12:58:59;;;;;;;10.80;5.00;;;;;;;;;;5102362;28;20066;-82
2021/06/29 13:01:25;;;;;;;9.40;4.18;;;;;;;;;;5099765;28;20438;-81
2021/06/29 13:03:53;;;;;;;11.90;4.82;;;;;;;;;;5114965;28;20020;-82
2021/06/29 13:06:21;;;;;;;9.48;4.43;;;;;;;;;;5098756;28;20020;-80
2021/06/29 13:08:47;;;;;;;12.23;4.78;;;;;;;;;;5094767;28;20020;-81
2021/06/29 13:11:15;;;;;;;34.35;6.78;;;;;;;;;;5094631;28;20050;-82
2021/06/29 13:13:42;;;;;;;8.20;3.63;;;;;;;;;;5097373;28;20020;-82
2021/06/29 13:16:26;;;;;;;10.48;4.15;;;;;;;;;;5114785;28;20530;-81
2021/06/29 13:18:53;;;;;;;11.10;4.15;;;;;;;;;;5114845;27;20074;-81
2021/06/29 13:21:29;;;;;;;6.97;4.28;;;;;;;;;;5114833;28;20488;-82
2021/06/29 13:24:00;;;;;;;11.07;4.05;;;;;;;;;;5114048;28;20019;-83
2021/06/29 13:26:27;;;;;;;15.88;4.40;;;;;;;;;;5110049;28;20024;-81
2021/06/29 13:28:54;;;;;;;7.93;3.53;;;;;;;;;;5094188;28;20023;-83
2021/06/29 13:31:20;;;;;;;13.35;4.43;;;;;;;;;;5094177;28;20567;-84
2021/06/29 13:33:47;;;;;;;9.02;4.30;;;;;;;;;;5094072;28;20032;-84
2021/06/29 13:36:13;;;;;;;9.48;4.28;;;;;;;;;;5094382;28;20390;-82
2021/06/29 13:38:39;;;;;;;8.05;3.88;;;;;;;;;;5094241;28;20039;-83
2021/06/29 13:41:06;;;;;;;9.15;4.88;;;;;;;;;;5101435;28;20044;-81
2021/06/29 13:43:35;;;;;;;24.02;7.30;;;;;;;;;;5113189;28;20020;-81
2021/06/29 13:46:02;;;;;;;8.18;4.20;;;;;;;;;;5108515;28;20462;-83
2021/06/29 13:48:29;;;;;;;10.95;4.35;;;;;;;;;;5112908;28;20030;-82
2021/06/29 13:50:56;;;;;;;8.98;3.90;;;;;;;;;;5112926;28;20020;-82
2021/06/29 13:53:28;;;;;;;11.27;4.03;;;;;;;;;;5113678;28;20439;-82
2021/06/29 13:55:56;;;;;;;7.93;3.65;;;;;;;;;;5114105;28;20045;-82
2021/06/29 13:58:23;;;;;;;7.32;3.88;;;;;;;;;;5114038;28;20028;-83
2021/06/29 14:00:51;;;;;;;7.10;3.17;;;;;;;;;;5114073;28;20267;-82
2021/06/29 14:03:18;;;;;;;7.93;4.32;;;;;;;;;;5113972;28;20016;-82
2021/06/29 14:05:48;;;;;;;9.60;4.25;;;;;;;;;;5114185;28;20024;-82
2021/06/29 14:08:19;;;;;;;9.23;3.95;;;;;;;;;;5113916;28;20027;-82
2021/06/29 14:10:51;;;;;;;8.43;3.58;;;;;;;;;;5095843;28;20059;-82
2021/06/29 14:13:27;;;;;;;10.38;4.60;;;;;;;;;;5113562;28;20442;-82
2021/06/29 14:15:54;;;;;;;9.32;4.68;;;;;;;;;;5113904;28;20026;-81
2021/06/29 14:18:20;;;;;;;11.57;3.97;;;;;;;;;;5113917;28;20027;-82
2021/06/29 14:20:47;;;;;;;8.32;4.45;;;;;;;;;;5113890;28;20018;-82
2021/06/29 14:23:13;;;;;;;11.88;4.78;;;;;;;;;;5113624;28;20126;-82
2021/06/29 14:25:39;;;;;;;8.55;4.20;;;;;;;;;;5113812;28;20024;-82
2021/06/29 14:28:05;;;;;;;13.20;4.50;;;;;;;;;;5113485;28;20024;-81
2021/06/29 14:30:31;;;;;;;6.68;3.92;;;;;;;;;;5113674;28;20024;-82
2021/06/29 14:32:58;;;;;;;8.60;3.90;;;;;;;;;;5113609;28;20031;-82
2021/06/29 14:35:24;;;;;;;6.60;3.60;;;;;;;;;;5113288;28;20076;-82
2021/06/29 14:37:51;;;;;;;10.65;4.25;;;;;;;;;;5113656;28;20020;-82
2021/06/29 14:40:17;;;;;;;9.90;3.97;;;;;;;;;;5113253;28;20047;-82